createdAt,value
2018-12-17T00:00:36.557Z,1007.29
2018-12-17T00:05:32.279Z,1007.42
2018-12-17T00:10:28.738Z,1007.40
2018-12-17T00:15:24.595Z,1007.41
2018-12-17T00:20:20.227Z,1007.43
2018-12-17T00:25:16.032Z,1007.54
2018-12-17T00:30:12.771Z,1007.52
2018-12-17T00:35:08.296Z,1007.54
2018-12-17T00:40:04.816Z,1007.56
2018-12-17T00:45:00.088Z,1007.62
2018-12-17T00:49:55.802Z,1007.64
2018-12-17T00:54:52.378Z,1007.59
2018-12-17T00:59:48.473Z,1007.71
2018-12-17T01:04:44.249Z,1007.81
2018-12-17T01:09:39.878Z,1007.80
2018-12-17T01:14:35.546Z,1007.81
2018-12-17T01:19:31.280Z,1007.87
2018-12-17T01:24:27.568Z,1007.87
2018-12-17T01:29:23.786Z,1007.83
2018-12-17T01:34:20.076Z,1007.89
2018-12-17T01:39:15.731Z,1007.95
2018-12-17T01:44:12.295Z,1007.95
2018-12-17T01:49:07.727Z,1007.96
2018-12-17T01:54:03.301Z,1007.93
2018-12-17T01:58:58.567Z,1007.89
2018-12-17T02:03:55.239Z,1007.89
2018-12-17T02:08:50.855Z,1007.84
2018-12-17T02:13:46.972Z,1007.91
2018-12-17T02:18:42.743Z,1007.83
2018-12-17T02:23:39.007Z,1007.88
2018-12-17T02:28:36.246Z,1007.93
2018-12-17T02:33:31.792Z,1007.88
2018-12-17T02:38:27.521Z,1007.86
2018-12-17T02:43:23.043Z,1007.85
2018-12-17T02:48:18.737Z,1007.87
2018-12-17T02:53:15.552Z,1007.94
2018-12-17T02:58:11.334Z,1007.94
2018-12-17T03:03:07.876Z,1008.01
2018-12-17T03:08:04.619Z,1007.98
2018-12-17T03:12:59.780Z,1008.00
2018-12-17T03:17:57.139Z,1007.94
2018-12-17T03:22:53.963Z,1007.94
2018-12-17T03:27:49.195Z,1008.04
2018-12-17T03:32:44.872Z,1008.06
2018-12-17T03:37:40.195Z,1008.08
2018-12-17T03:42:35.822Z,1008.01
2018-12-17T03:47:31.552Z,1008.11
2018-12-17T03:52:27.196Z,1008.20
2018-12-17T03:57:22.831Z,1008.18
2018-12-17T04:02:19.463Z,1008.23
2018-12-17T04:07:15.889Z,1008.23
2018-12-17T04:12:11.671Z,1008.16
2018-12-17T04:17:07.355Z,1008.23
2018-12-17T04:22:04.840Z,1008.28
2018-12-17T04:27:00.960Z,1008.16
2018-12-17T04:31:57.005Z,1008.16
2018-12-17T04:36:52.626Z,1008.25
2018-12-17T04:41:48.329Z,1008.27
2018-12-17T04:46:44.075Z,1008.35
2018-12-17T04:51:39.744Z,1008.44
2018-12-17T04:56:35.440Z,1008.41
2018-12-17T05:01:32.065Z,1008.44
2018-12-17T05:06:28.577Z,1008.47
2018-12-17T05:11:23.977Z,1008.43
2018-12-17T05:16:19.581Z,1008.49
2018-12-17T05:21:16.297Z,1008.47
2018-12-17T05:26:11.753Z,1008.53
2018-12-17T05:31:08.635Z,1008.55
2018-12-17T05:36:03.937Z,1008.71
2018-12-17T05:41:00.572Z,1008.73
2018-12-17T05:45:56.901Z,1008.68
2018-12-17T05:50:52.370Z,1008.75
2018-12-17T05:55:48.035Z,1008.78
2018-12-17T06:00:43.738Z,1008.90
2018-12-17T06:05:39.338Z,1008.81
2018-12-17T06:10:35.238Z,1008.87
2018-12-17T06:15:32.076Z,1008.95
2018-12-17T06:20:27.458Z,1008.99
2018-12-17T06:25:23.075Z,1008.97
2018-12-17T06:30:18.812Z,1009.02
2018-12-17T06:35:14.409Z,1009.10
2018-12-17T06:40:10.442Z,1009.09
2018-12-17T06:45:06.040Z,1009.02
2018-12-17T06:50:02.465Z,1009.11
2018-12-17T06:54:57.959Z,1009.09
2018-12-17T06:59:54.705Z,1009.29
2018-12-17T07:04:51.457Z,1009.26
2018-12-17T07:09:48.632Z,1009.33
2018-12-17T07:14:43.878Z,1009.34
2018-12-17T07:19:40.403Z,1009.36
2018-12-17T07:24:36.395Z,1009.45
2018-12-17T07:29:32.035Z,1009.37
2018-12-17T07:34:28.764Z,1009.51
2018-12-17T07:39:24.293Z,1009.53
2018-12-17T07:44:21.233Z,1009.56
2018-12-17T07:49:17.623Z,1009.61
2018-12-17T07:54:13.492Z,1009.64
2018-12-17T07:59:09.858Z,1009.71
2018-12-17T08:04:06.566Z,1009.83
2018-12-17T08:09:02.167Z,1009.82
2018-12-17T08:13:57.816Z,1009.81
2018-12-17T08:18:54.352Z,1009.83
2018-12-17T08:23:50.646Z,1009.86
2018-12-17T08:28:46.372Z,1009.92
2018-12-17T08:33:42.115Z,1009.87
2018-12-17T08:38:37.841Z,1009.97
2018-12-17T08:43:33.685Z,1010.04
2018-12-17T08:48:30.500Z,1010.05
2018-12-17T08:53:26.052Z,1010.14
2018-12-17T08:58:22.014Z,1010.11
2018-12-17T09:03:17.900Z,1010.21
2018-12-17T09:08:13.806Z,1010.20
2018-12-17T09:13:09.624Z,1010.29
2018-12-17T09:18:07.282Z,1010.27
2018-12-17T09:23:02.346Z,1010.26
2018-12-17T09:27:58.067Z,1010.38
2018-12-17T09:32:53.681Z,1010.41
2018-12-17T09:37:49.603Z,1010.47
2018-12-17T09:42:46.270Z,1010.46
2018-12-17T09:47:43.103Z,1010.49
2018-12-17T09:52:38.434Z,1010.55
2018-12-17T09:57:34.622Z,1010.60
2018-12-17T10:02:30.277Z,1010.62
2018-12-17T10:07:30.466Z,1010.64
2018-12-17T10:12:25.230Z,1010.55
2018-12-17T10:17:21.030Z,1010.54
2018-12-17T10:22:16.821Z,1010.48
2018-12-17T10:27:12.480Z,1010.44
2018-12-17T10:32:08.083Z,1010.43
2018-12-17T10:37:03.886Z,1010.51
2018-12-17T10:42:00.659Z,1010.42
2018-12-17T10:46:57.106Z,1010.46
2018-12-17T10:51:53.538Z,1010.47
2018-12-17T10:56:49.082Z,1010.42
2018-12-17T11:01:44.802Z,1010.51
2018-12-17T11:06:40.761Z,1010.46
2018-12-17T11:11:37.401Z,1010.55
2018-12-17T11:16:34.530Z,1010.45
2018-12-17T11:21:29.945Z,1010.48
2018-12-17T11:26:25.648Z,1010.50
2018-12-17T11:31:21.723Z,1010.50
2018-12-17T11:36:17.560Z,1010.48
2018-12-17T11:41:14.453Z,1010.51
2018-12-17T11:46:10.063Z,1010.57
2018-12-17T11:51:06.589Z,1010.46
2018-12-17T11:56:02.048Z,1010.57
2018-12-17T12:00:58.309Z,1010.50
2018-12-17T12:05:54.752Z,1010.59
2018-12-17T12:10:50.313Z,1010.63
2018-12-17T12:15:46.130Z,1010.71
2018-12-17T12:20:43.552Z,1010.61
2018-12-17T12:25:38.972Z,1010.71
2018-12-17T12:30:35.593Z,1010.72
2018-12-17T12:35:32.050Z,1010.81
2018-12-17T12:40:27.498Z,1010.77
2018-12-17T12:45:23.303Z,1010.80
2018-12-17T12:50:19.859Z,1010.91
2018-12-17T12:55:15.335Z,1010.94
2018-12-17T13:00:12.163Z,1010.92
2018-12-17T13:05:08.253Z,1011.07
2018-12-17T13:10:05.161Z,1011.16
2018-12-17T13:15:00.481Z,1011.14
2018-12-17T13:19:57.286Z,1011.18
2018-12-17T13:24:52.870Z,1011.25
2018-12-17T13:29:49.297Z,1011.27
2018-12-17T13:34:45.080Z,1011.40
2018-12-17T13:39:41.671Z,1011.43
2018-12-17T13:44:37.549Z,1011.54
2018-12-17T13:49:33.425Z,1011.51
2018-12-17T13:54:30.069Z,1011.61
2018-12-17T13:59:25.475Z,1011.75
2018-12-17T14:04:22.148Z,1011.79
2018-12-17T14:09:17.801Z,1011.83
2018-12-17T14:14:13.696Z,1011.94
2018-12-17T14:19:09.295Z,1011.99
2018-12-17T14:24:05.206Z,1011.97
2018-12-17T14:29:02.196Z,1012.07
2018-12-17T14:33:57.781Z,1012.19
2018-12-17T14:38:53.351Z,1012.16
2018-12-17T14:43:49.839Z,1012.33
2018-12-17T14:48:46.463Z,1012.42
2018-12-17T14:53:42.070Z,1012.51
2018-12-17T14:58:44.187Z,1012.57
2018-12-17T15:03:37.888Z,1012.69
2018-12-17T15:08:33.153Z,1012.75
2018-12-17T15:13:29.111Z,1012.83
2018-12-17T15:18:24.718Z,1012.88
2018-12-17T15:23:21.691Z,1013.06
2018-12-17T15:28:17.631Z,1013.10
2018-12-17T15:33:13.202Z,1013.13
2018-12-17T15:38:09.081Z,1013.22
2018-12-17T15:43:04.714Z,1013.31
2018-12-17T15:48:00.329Z,1013.38
2018-12-17T15:52:56.186Z,1013.50
2018-12-17T15:57:51.961Z,1013.61
2018-12-17T16:02:47.816Z,1013.61
2018-12-17T16:07:44.013Z,1013.66
2018-12-17T16:12:40.902Z,1013.74
2018-12-17T16:17:36.077Z,1013.84
2018-12-17T16:22:31.832Z,1014.01
2018-12-17T16:27:27.703Z,1013.98
2018-12-17T16:32:23.419Z,1013.91
2018-12-17T16:37:20.265Z,1014.08
2018-12-17T16:42:15.779Z,1014.15
2018-12-17T16:47:11.461Z,1014.28
2018-12-17T16:52:07.049Z,1014.31
2018-12-17T16:57:04.450Z,1014.33
2018-12-17T17:02:04.530Z,1014.35
2018-12-17T17:06:59.317Z,1014.42
2018-12-17T17:11:54.986Z,1014.48
2018-12-17T17:16:52.071Z,1014.60
2018-12-17T17:21:48.541Z,1014.52
2018-12-17T17:26:44.802Z,1014.57
2018-12-17T17:31:41.208Z,1014.59
2018-12-17T17:36:37.592Z,1014.61
2018-12-17T17:41:33.015Z,1014.69
2018-12-17T17:46:28.806Z,1014.93
2018-12-17T17:51:24.312Z,1014.81
2018-12-17T17:56:20.049Z,1014.88
2018-12-17T18:01:15.935Z,1015.00
2018-12-17T18:06:16.257Z,1014.93
2018-12-17T18:11:11.238Z,1014.97
2018-12-17T18:16:06.882Z,1015.13
2018-12-17T18:21:02.602Z,1015.20
2018-12-17T18:25:59.031Z,1015.31
2018-12-17T18:30:55.117Z,1015.48
2018-12-17T18:35:50.791Z,1015.42
2018-12-17T18:40:46.205Z,1015.58
2018-12-17T18:45:42.377Z,1015.67
2018-12-17T18:50:37.498Z,1015.77
2018-12-17T18:55:33.215Z,1015.77
2018-12-17T19:00:29.796Z,1015.99
2018-12-17T19:05:25.099Z,1015.97
2018-12-17T19:10:20.355Z,1016.10
2018-12-17T19:15:15.950Z,1016.08
2018-12-17T19:20:11.665Z,1016.14
2018-12-17T19:25:07.248Z,1016.25
2018-12-17T19:30:04.094Z,1016.25
2018-12-17T19:34:59.782Z,1016.34
2018-12-17T19:39:55.544Z,1016.36
2018-12-17T19:44:51.339Z,1016.35
2018-12-17T19:49:47.312Z,1016.41
2018-12-17T19:54:42.984Z,1016.53
2018-12-17T19:59:38.924Z,1016.44
2018-12-17T20:04:34.540Z,1016.46
2018-12-17T20:09:31.212Z,1016.49
2018-12-17T20:14:26.853Z,1016.56
2018-12-17T20:19:23.551Z,1016.68
2018-12-17T20:24:19.047Z,1016.61
2018-12-17T20:29:14.706Z,1016.76
2018-12-17T20:34:11.863Z,1016.71
2018-12-17T20:39:07.010Z,1016.80
2018-12-17T20:44:02.593Z,1016.74
2018-12-17T20:48:58.342Z,1016.83
2018-12-17T20:53:54.053Z,1016.89
2018-12-17T20:58:50.736Z,1016.91
2018-12-17T21:03:47.203Z,1016.99
2018-12-17T21:08:42.848Z,1016.98
2018-12-17T21:13:38.895Z,1017.06
2018-12-17T21:18:34.793Z,1017.05
2018-12-17T21:23:30.455Z,1017.06
2018-12-17T21:28:27.263Z,1017.07
2018-12-17T21:33:22.817Z,1017.09
2018-12-17T21:38:18.383Z,1017.05
2018-12-17T21:43:14.353Z,1017.17
2018-12-17T21:48:10.242Z,1017.12
2018-12-17T21:53:05.777Z,1017.18
2018-12-17T21:58:02.568Z,1017.16
2018-12-17T22:02:58.136Z,1017.08
2018-12-17T22:07:54.910Z,1017.12
2018-12-17T22:12:51.264Z,1017.22
2018-12-17T22:17:46.789Z,1017.35
2018-12-17T22:22:42.391Z,1017.28
2018-12-17T22:27:39.126Z,1017.44
2018-12-17T22:32:34.652Z,1017.42
2018-12-17T22:37:31.283Z,1017.48
2018-12-17T22:42:27.073Z,1017.61
2018-12-17T22:47:22.670Z,1017.58
2018-12-17T22:52:18.075Z,1017.58
2018-12-17T22:57:13.713Z,1017.64
2018-12-17T23:02:09.344Z,1017.61
2018-12-17T23:07:07.430Z,1017.62
2018-12-17T23:12:03.044Z,1017.66
2018-12-17T23:16:59.580Z,1017.56
2018-12-17T23:21:56.001Z,1017.53
2018-12-17T23:26:51.683Z,1017.53
2018-12-17T23:31:48.762Z,1017.56
2018-12-17T23:36:44.179Z,1017.63
2018-12-17T23:41:41.016Z,1017.54
2018-12-17T23:46:36.772Z,1017.58
2018-12-17T23:51:32.630Z,1017.65
2018-12-17T23:56:28.173Z,1017.51
